Time;durP1;ratioP1;P1;durP2;ratioP2;P2;SDS_P1;SDS_P2;PMS_P1;PMS_P2;Temp;Humidity;BMP_temperature;BMP_pressure;BME280_temperature;BME280_humidity;BME280_pressure;Samples;Min_cycle;Max_cycle;Signal;HPM_P1;HPM_P2
2022/02/14 00:01:38;;;;;;;38.28;21.73;;;;;;;;;;4992327;28;20125;-44
2022/02/14 00:04:04;;;;;;;30.80;18.10;;;;;;;;;;4994964;28;20030;-46
2022/02/14 00:06:30;;;;;;;35.67;19.98;;;;;;;;;;4990206;28;20065;-43
2022/02/14 00:08:56;;;;;;;36.58;19.15;;;;;;;;;;4989933;28;20034;-43
2022/02/14 00:11:24;;;;;;;36.88;20.73;;;;;;;;;;4989441;28;20443;-43
2022/02/14 00:13:51;;;;;;;47.67;25.77;;;;;;;;;;4990589;28;20818;-43
2022/02/14 00:16:17;;;;;;;41.78;22.45;;;;;;;;;;4989855;28;20460;-43
2022/02/14 00:18:43;;;;;;;55.80;29.58;;;;;;;;;;4988639;28;20042;-43
2022/02/14 00:21:09;;;;;;;34.70;20.15;;;;;;;;;;4988398;28;20027;-43
2022/02/14 00:23:35;;;;;;;38.92;19.92;;;;;;;;;;4990835;28;20037;-44
2022/02/14 00:26:01;;;;;;;37.17;22.52;;;;;;;;;;4988909;28;20022;-44
2022/02/14 00:28:27;;;;;;;37.65;20.27;;;;;;;;;;4990796;28;20038;-43
2022/02/14 00:30:54;;;;;;;45.65;23.73;;;;;;;;;;4988642;28;20037;-44
2022/02/14 00:33:20;;;;;;;38.80;21.17;;;;;;;;;;4989730;28;20032;-42
2022/02/14 00:35:47;;;;;;;35.25;20.40;;;;;;;;;;4987598;28;20049;-43
2022/02/14 00:38:13;;;;;;;37.40;20.95;;;;;;;;;;4985701;28;20030;-43
2022/02/14 00:40:39;;;;;;;38.85;21.52;;;;;;;;;;4986569;28;20088;-44
2022/02/14 00:43:05;;;;;;;35.13;18.55;;;;;;;;;;5014535;28;20018;-44
2022/02/14 00:45:32;;;;;;;33.72;18.70;;;;;;;;;;5014560;28;20458;-43
2022/02/14 00:47:59;;;;;;;34.53;19.30;;;;;;;;;;5014530;28;20101;-43
2022/02/14 00:50:25;;;;;;;33.72;19.13;;;;;;;;;;5014510;28;20026;-45
2022/02/14 00:52:53;;;;;;;31.63;18.50;;;;;;;;;;5014490;28;20014;-44
2022/02/14 00:55:19;;;;;;;42.30;26.02;;;;;;;;;;5014559;28;20466;-44
2022/02/14 00:57:47;;;;;;;28.92;17.45;;;;;;;;;;5014284;28;20079;-44
2022/02/14 01:00:14;;;;;;;34.00;18.75;;;;;;;;;;5014346;28;20425;-45
2022/02/14 01:02:42;;;;;;;31.92;18.15;;;;;;;;;;5014400;28;20041;-45
2022/02/14 01:05:09;;;;;;;35.33;18.75;;;;;;;;;;5014028;28;20038;-45
2022/02/14 01:07:35;;;;;;;29.95;17.52;;;;;;;;;;5014166;28;20033;-44
2022/02/14 01:10:01;;;;;;;32.10;19.00;;;;;;;;;;5013850;28;20065;-47
2022/02/14 01:12:28;;;;;;;31.23;17.73;;;;;;;;;;5013989;28;20022;-46
2022/02/14 01:14:54;;;;;;;31.33;17.33;;;;;;;;;;5014029;28;20489;-45
2022/02/14 01:17:21;;;;;;;37.38;19.95;;;;;;;;;;5014036;28;20033;-45
2022/02/14 01:19:47;;;;;;;28.88;17.33;;;;;;;;;;5013983;28;20025;-44
2022/02/14 01:22:13;;;;;;;33.22;18.65;;;;;;;;;;4996331;28;20474;-44
2022/02/14 01:24:40;;;;;;;32.50;18.20;;;;;;;;;;5013782;28;20442;-45
2022/02/14 01:27:06;;;;;;;30.67;18.55;;;;;;;;;;5013896;28;20022;-44
2022/02/14 01:29:34;;;;;;;30.67;17.63;;;;;;;;;;5014198;28;20048;-45
2022/02/14 01:32:03;;;;;;;34.08;18.55;;;;;;;;;;5014011;28;20043;-44
2022/02/14 01:34:30;;;;;;;31.17;18.08;;;;;;;;;;5013598;28;20562;-45
2022/02/14 01:36:56;;;;;;;36.53;19.38;;;;;;;;;;5013764;28;20034;-45
2022/02/14 01:39:22;;;;;;;35.42;18.20;;;;;;;;;;5013807;28;20386;-45
2022/02/14 01:41:48;;;;;;;34.40;18.33;;;;;;;;;;5013623;28;20029;-44
2022/02/14 01:44:32;;;;;;;33.53;17.25;;;;;;;;;;5013454;28;20034;-43
2022/02/14 01:46:59;;;;;;;33.28;18.27;;;;;;;;;;5013526;28;20030;-44
2022/02/14 01:49:25;;;;;;;33.15;19.02;;;;;;;;;;5013646;28;20512;-44
2022/02/14 01:51:51;;;;;;;27.63;16.92;;;;;;;;;;5013458;28;20095;-45
2022/02/14 01:54:17;;;;;;;34.90;17.98;;;;;;;;;;5013390;28;20037;-45
2022/02/14 01:56:43;;;;;;;34.13;18.35;;;;;;;;;;5013399;28;20534;-44
2022/02/14 01:59:09;;;;;;;30.25;17.75;;;;;;;;;;5013390;28;20040;-44
2022/02/14 02:01:35;;;;;;;29.15;18.13;;;;;;;;;;5013323;28;20029;-44
2022/02/14 02:04:01;;;;;;;34.25;17.83;;;;;;;;;;5013249;28;20140;-44
2022/02/14 02:06:29;;;;;;;31.83;17.83;;;;;;;;;;5013339;28;20416;-44
2022/02/14 02:08:55;;;;;;;37.03;18.77;;;;;;;;;;5013276;28;20161;-44
2022/02/14 02:14:05;;;;;;;34.28;18.50;;;;;;;;;;5013283;28;20040;-45
2022/02/14 02:16:31;;;;;;;35.10;17.95;;;;;;;;;;5013404;28;20033;-45
2022/02/14 02:18:58;;;;;;;31.00;18.23;;;;;;;;;;5013256;28;20026;-44
2022/02/14 02:21:24;;;;;;;38.13;19.92;;;;;;;;;;5013695;28;20079;-44
2022/02/14 02:23:50;;;;;;;36.22;18.98;;;;;;;;;;5017199;28;20030;-44
2022/02/14 02:26:16;;;;;;;34.40;19.00;;;;;;;;;;5017258;28;20477;-44
2022/02/14 02:28:44;;;;;;;32.85;17.60;;;;;;;;;;5017232;28;20049;-45
2022/02/14 02:31:10;;;;;;;33.42;19.52;;;;;;;;;;5017162;28;20109;-44
2022/02/14 02:33:36;;;;;;;34.83;17.90;;;;;;;;;;5017235;28;20034;-44
2022/02/14 02:36:02;;;;;;;32.67;17.85;;;;;;;;;;5017089;28;20057;-44
2022/02/14 02:38:33;;;;;;;37.33;19.15;;;;;;;;;;5016930;28;20108;-44
2022/02/14 02:40:59;;;;;;;31.10;18.40;;;;;;;;;;5017294;28;20346;-44
2022/02/14 02:43:29;;;;;;;36.97;19.95;;;;;;;;;;5017047;28;20026;-44
2022/02/14 02:45:59;;;;;;;33.97;18.65;;;;;;;;;;5016870;28;20505;-44
2022/02/14 02:48:25;;;;;;;31.17;18.40;;;;;;;;;;5017044;28;20044;-44
2022/02/14 02:51:05;;;;;;;37.50;18.90;;;;;;;;;;5016752;28;20022;-44
2022/02/14 02:53:31;;;;;;;34.50;18.88;;;;;;;;;;5016531;28;20500;-43
2022/02/14 02:55:58;;;;;;;33.67;19.48;;;;;;;;;;5016880;28;20064;-44
2022/02/14 02:58:24;;;;;;;31.15;18.40;;;;;;;;;;5016668;28;20022;-44
2022/02/14 03:00:52;;;;;;;31.20;18.13;;;;;;;;;;5016468;28;20021;-45
2022/02/14 03:03:20;;;;;;;36.15;19.63;;;;;;;;;;5016379;28;20529;-44
2022/02/14 03:05:48;;;;;;;32.17;18.95;;;;;;;;;;5016517;28;20046;-44
2022/02/14 03:08:15;;;;;;;30.98;18.48;;;;;;;;;;5016365;28;20501;-44
2022/02/14 03:10:41;;;;;;;28.73;18.40;;;;;;;;;;5016543;28;20112;-43
2022/02/14 03:13:07;;;;;;;29.83;18.60;;;;;;;;;;5016612;28;20073;-44
2022/02/14 03:15:34;;;;;;;32.20;18.20;;;;;;;;;;5016481;28;20062;-43
2022/02/14 03:18:00;;;;;;;31.50;18.08;;;;;;;;;;5016380;28;20046;-44
2022/02/14 03:20:26;;;;;;;31.13;18.67;;;;;;;;;;5016267;28;20087;-44
2022/02/14 03:22:52;;;;;;;29.10;17.17;;;;;;;;;;5016077;28;20390;-44
2022/02/14 03:25:21;;;;;;;30.48;18.42;;;;;;;;;;5015948;28;20091;-44
2022/02/14 03:27:47;;;;;;;34.05;19.55;;;;;;;;;;5016060;28;20050;-44
2022/02/14 03:30:13;;;;;;;42.53;23.88;;;;;;;;;;5016023;28;20072;-43
2022/02/14 03:32:39;;;;;;;36.88;21.30;;;;;;;;;;5015593;28;20385;-44
2022/02/14 03:35:05;;;;;;;35.58;19.98;;;;;;;;;;5015665;28;20054;-44
2022/02/14 03:37:31;;;;;;;31.95;19.38;;;;;;;;;;5015795;28;20026;-44
2022/02/14 03:39:57;;;;;;;32.15;20.08;;;;;;;;;;5015810;28;20026;-44
2022/02/14 03:42:24;;;;;;;33.17;19.60;;;;;;;;;;5015780;28;20029;-44
2022/02/14 03:44:50;;;;;;;34.05;20.45;;;;;;;;;;5015767;28;20382;-42
2022/02/14 03:47:16;;;;;;;33.92;19.02;;;;;;;;;;5015885;28;20057;-43
2022/02/14 03:49:42;;;;;;;33.58;18.92;;;;;;;;;;5015698;28;20025;-42
2022/02/14 03:52:08;;;;;;;32.50;19.73;;;;;;;;;;5015497;28;20354;-45
2022/02/14 03:54:36;;;;;;;39.40;19.00;;;;;;;;;;5015628;28;20022;-44
2022/02/14 03:57:02;;;;;;;40.13;21.70;;;;;;;;;;5015594;28;20109;-43
2022/02/14 03:59:29;;;;;;;36.08;19.80;;;;;;;;;;5015468;28;20257;-43
2022/02/14 04:01:55;;;;;;;36.88;19.33;;;;;;;;;;5015531;28;20434;-43
2022/02/14 04:04:23;;;;;;;32.53;19.55;;;;;;;;;;5015199;28;20096;-43
2022/02/14 04:06:49;;;;;;;33.00;19.92;;;;;;;;;;5015308;28;20026;-43
2022/02/14 04:09:15;;;;;;;30.88;18.60;;;;;;;;;;4997137;28;20041;-45
2022/02/14 04:11:41;;;;;;;30.35;18.50;;;;;;;;;;5015329;28;20033;-45
2022/02/14 04:14:07;;;;;;;34.30;19.80;;;;;;;;;;5015422;28;20560;-43
2022/02/14 04:16:33;;;;;;;33.60;19.42;;;;;;;;;;5015244;28;20461;-44
2022/02/14 04:18:59;;;;;;;43.33;22.48;;;;;;;;;;5015268;28;20084;-44
2022/02/14 04:21:25;;;;;;;43.20;22.67;;;;;;;;;;5015034;28;20101;-44
2022/02/14 04:23:51;;;;;;;37.90;21.90;;;;;;;;;;5014972;28;20030;-44
2022/02/14 04:26:24;;;;;;;43.40;21.98;;;;;;;;;;5014966;28;20478;-43
2022/02/14 04:28:50;;;;;;;37.08;21.17;;;;;;;;;;5015088;28;20474;-44
2022/02/14 04:31:16;;;;;;;33.75;20.17;;;;;;;;;;5014844;28;20062;-43
2022/02/14 04:33:42;;;;;;;34.28;20.20;;;;;;;;;;5014897;28;20026;-43
2022/02/14 04:36:11;;;;;;;35.47;19.58;;;;;;;;;;5014651;28;20073;-44
2022/02/14 04:38:37;;;;;;;36.60;19.75;;;;;;;;;;5014717;28;20064;-43
2022/02/14 04:41:03;;;;;;;40.13;20.67;;;;;;;;;;5014626;28;20113;-43
2022/02/14 04:43:29;;;;;;;34.92;19.95;;;;;;;;;;5014833;28;20533;-44
2022/02/14 04:45:55;;;;;;;37.83;19.65;;;;;;;;;;5014013;28;20064;-48
2022/02/14 04:48:21;;;;;;;33.90;19.35;;;;;;;;;;5014634;28;20026;-46
2022/02/14 04:50:47;;;;;;;32.70;19.45;;;;;;;;;;5014552;28;20030;-51
2022/02/14 04:53:13;;;;;;;35.88;19.67;;;;;;;;;;5014453;28;20163;-45
2022/02/14 04:55:40;;;;;;;36.30;20.63;;;;;;;;;;5014425;28;20026;-45
2022/02/14 04:58:06;;;;;;;36.08;21.15;;;;;;;;;;5014515;28;20378;-44
2022/02/14 05:00:32;;;;;;;37.75;21.15;;;;;;;;;;5014468;28;20091;-45
2022/02/14 05:02:58;;;;;;;37.65;20.33;;;;;;;;;;5014557;28;20163;-45
2022/02/14 05:05:25;;;;;;;38.78;21.02;;;;;;;;;;5014179;28;20034;-44
2022/02/14 05:07:53;;;;;;;32.00;19.13;;;;;;;;;;5014183;28;20026;-44
2022/02/14 05:10:19;;;;;;;31.90;18.77;;;;;;;;;;5014272;28;20113;-44
2022/02/14 05:12:46;;;;;;;33.72;19.25;;;;;;;;;;5014148;28;20072;-44
2022/02/14 05:15:12;;;;;;;33.60;19.27;;;;;;;;;;5014147;28;20030;-44
2022/02/14 05:17:38;;;;;;;33.72;19.27;;;;;;;;;;5014387;28;20052;-44
2022/02/14 05:20:05;;;;;;;29.67;18.60;;;;;;;;;;5014185;28;20046;-43
2022/02/14 05:22:31;;;;;;;34.22;19.65;;;;;;;;;;5013866;28;20036;-45
2022/02/14 05:24:59;;;;;;;33.47;20.75;;;;;;;;;;5013768;28;20042;-45
2022/02/14 05:27:25;;;;;;;41.55;22.00;;;;;;;;;;5013897;28;20066;-46
2022/02/14 05:29:51;;;;;;;41.63;21.77;;;;;;;;;;5013988;28;20030;-44
2022/02/14 05:32:17;;;;;;;45.92;23.83;;;;;;;;;;5013802;28;20018;-45
2022/02/14 05:34:44;;;;;;;77.65;35.42;;;;;;;;;;5013577;28;20383;-46
2022/02/14 05:37:10;;;;;;;75.45;35.13;;;;;;;;;;5013554;28;20038;-45
2022/02/14 05:39:36;;;;;;;41.42;24.48;;;;;;;;;;5013557;28;20558;-45
2022/02/14 05:42:03;;;;;;;41.15;23.15;;;;;;;;;;5013789;28;20104;-44
2022/02/14 05:44:29;;;;;;;41.78;22.35;;;;;;;;;;5013378;28;20022;-45
2022/02/14 05:46:55;;;;;;;37.70;21.50;;;;;;;;;;5013817;28;20030;-45
2022/02/14 05:49:21;;;;;;;44.38;24.50;;;;;;;;;;5013699;28;20466;-45
2022/02/14 05:51:47;;;;;;;34.95;20.17;;;;;;;;;;5013293;28;20029;-45
2022/02/14 05:54:13;;;;;;;46.28;23.95;;;;;;;;;;5013547;28;20029;-44
2022/02/14 05:56:41;;;;;;;66.07;32.58;;;;;;;;;;5013322;28;20030;-44
2022/02/14 05:59:10;;;;;;;72.93;34.30;;;;;;;;;;5013457;28;20066;-45
2022/02/14 06:01:38;;;;;;;66.47;32.70;;;;;;;;;;5013358;28;20029;-45
2022/02/14 06:04:04;;;;;;;59.03;28.50;;;;;;;;;;5013195;28;20153;-46
2022/02/14 06:06:30;;;;;;;51.65;24.63;;;;;;;;;;5013301;28;20030;-47
2022/02/14 06:08:56;;;;;;;46.97;21.42;;;;;;;;;;5013162;28;20026;-44
2022/02/14 06:11:22;;;;;;;45.67;22.85;;;;;;;;;;5013091;28;20041;-45
2022/02/14 06:13:48;;;;;;;46.15;24.13;;;;;;;;;;5013394;28;20377;-45
2022/02/14 06:16:15;;;;;;;47.00;24.85;;;;;;;;;;5013275;28;20026;-44
2022/02/14 06:18:41;;;;;;;45.63;24.20;;;;;;;;;;5013104;28;20047;-44
2022/02/14 06:21:07;;;;;;;49.28;25.38;;;;;;;;;;5013106;28;20037;-46
2022/02/14 06:23:33;;;;;;;36.22;20.75;;;;;;;;;;5012997;28;20113;-43
2022/02/14 06:26:02;;;;;;;37.70;22.10;;;;;;;;;;5012864;28;20482;-44
2022/02/14 06:28:28;;;;;;;38.45;22.45;;;;;;;;;;5013109;28;20114;-45
2022/02/14 06:30:55;;;;;;;42.42;22.73;;;;;;;;;;5013137;28;20026;-45
2022/02/14 06:33:21;;;;;;;42.45;23.95;;;;;;;;;;5012902;28;20431;-44
2022/02/14 06:35:49;;;;;;;35.13;22.33;;;;;;;;;;5012781;28;20108;-44
2022/02/14 06:38:15;;;;;;;39.72;21.38;;;;;;;;;;5012941;28;20494;-45
2022/02/14 06:40:41;;;;;;;36.55;21.05;;;;;;;;;;5012805;28;20034;-44
2022/02/14 06:43:07;;;;;;;29.27;18.95;;;;;;;;;;5012991;28;20018;-44
2022/02/14 06:45:34;;;;;;;34.78;19.50;;;;;;;;;;5012920;28;20464;-44
2022/02/14 06:48:00;;;;;;;38.25;20.83;;;;;;;;;;5012863;28;20041;-44
2022/02/14 06:50:26;;;;;;;41.38;22.95;;;;;;;;;;5012821;28;20034;-44
2022/02/14 06:52:52;;;;;;;34.95;19.55;;;;;;;;;;5012905;28;20022;-45
2022/02/14 06:55:18;;;;;;;36.28;22.45;;;;;;;;;;5012792;28;20538;-44
2022/02/14 06:57:44;;;;;;;50.08;29.70;;;;;;;;;;5012804;28;20037;-44
2022/02/14 07:00:12;;;;;;;42.97;24.48;;;;;;;;;;5012729;28;20034;-44
2022/02/14 07:02:39;;;;;;;38.00;21.45;;;;;;;;;;5012772;28;20034;-43
2022/02/14 07:05:05;;;;;;;40.38;23.70;;;;;;;;;;5012495;28;20078;-44
2022/02/14 07:07:31;;;;;;;42.75;24.30;;;;;;;;;;5013108;28;20031;-44
2022/02/14 07:09:57;;;;;;;41.80;23.08;;;;;;;;;;5016549;28;20026;-44
2022/02/14 07:12:24;;;;;;;39.97;22.08;;;;;;;;;;5016356;28;20026;-45
2022/02/14 07:14:50;;;;;;;38.05;21.77;;;;;;;;;;5016432;28;20029;-44
2022/02/14 07:17:16;;;;;;;36.25;23.15;;;;;;;;;;5016268;28;20037;-45
2022/02/14 07:19:42;;;;;;;46.20;26.10;;;;;;;;;;5016418;28;20026;-52
2022/02/14 07:22:09;;;;;;;46.05;26.23;;;;;;;;;;5016107;28;20057;-45
2022/02/14 07:24:37;;;;;;;43.38;24.98;;;;;;;;;;5015831;28;20052;-46
2022/02/14 07:27:03;;;;;;;42.90;23.98;;;;;;;;;;5016221;28;20397;-45
2022/02/14 07:29:29;;;;;;;45.33;24.85;;;;;;;;;;5015952;28;20026;-45
2022/02/14 07:31:56;;;;;;;47.28;25.63;;;;;;;;;;5016129;28;20030;-45
2022/02/14 07:34:22;;;;;;;47.42;26.67;;;;;;;;;;5015798;28;20030;-45
2022/02/14 07:36:48;;;;;;;37.10;22.38;;;;;;;;;;5015784;28;20038;-45
2022/02/14 07:39:14;;;;;;;39.70;22.42;;;;;;;;;;5015655;28;20017;-44
2022/02/14 07:41:40;;;;;;;39.55;21.27;;;;;;;;;;5015900;28;20036;-45
2022/02/14 07:44:07;;;;;;;38.67;22.58;;;;;;;;;;5015920;28;20026;-55
2022/02/14 07:46:33;;;;;;;40.13;23.30;;;;;;;;;;5015724;28;20393;-56
2022/02/14 07:48:59;;;;;;;37.53;22.65;;;;;;;;;;5015711;28;20029;-57
2022/02/14 07:51:25;;;;;;;33.08;21.10;;;;;;;;;;5015544;28;20030;-57
2022/02/14 07:53:52;;;;;;;45.95;24.30;;;;;;;;;;5015581;28;20029;-55
2022/02/14 07:56:22;;;;;;;40.70;22.65;;;;;;;;;;5015340;28;20445;-53
2022/02/14 07:58:49;;;;;;;36.30;21.13;;;;;;;;;;5015416;28;20512;-52
2022/02/14 08:01:16;;;;;;;39.60;23.13;;;;;;;;;;5015565;28;20064;-51
2022/02/14 08:03:43;;;;;;;32.25;20.00;;;;;;;;;;5015227;28;20443;-52
2022/02/14 08:06:11;;;;;;;36.28;21.80;;;;;;;;;;5015351;28;20072;-54
2022/02/14 08:08:39;;;;;;;63.78;35.35;;;;;;;;;;5015093;28;20066;-55
2022/02/14 08:11:07;;;;;;;42.45;26.63;;;;;;;;;;5015054;28;20030;-55
2022/02/14 08:13:33;;;;;;;41.72;24.73;;;;;;;;;;5015223;28;20046;-55
2022/02/14 08:15:59;;;;;;;36.13;21.85;;;;;;;;;;5015093;28;20061;-55
2022/02/14 08:18:25;;;;;;;121.15;58.75;;;;;;;;;;4997371;28;20022;-55
2022/02/14 08:20:51;;;;;;;54.00;28.83;;;;;;;;;;5013999;28;20030;-55
2022/02/14 08:23:18;;;;;;;39.35;24.55;;;;;;;;;;5014815;28;20425;-55
2022/02/14 08:25:44;;;;;;;99.82;53.63;;;;;;;;;;5014709;28;20068;-53
2022/02/14 08:28:10;;;;;;;42.55;27.45;;;;;;;;;;5015092;28;20030;-53
2022/02/14 08:30:36;;;;;;;30.40;20.73;;;;;;;;;;5014733;28;20117;-52
2022/02/14 08:33:05;;;;;;;52.80;31.35;;;;;;;;;;5014914;28;20490;-53
2022/02/14 08:35:31;;;;;;;65.72;34.83;;;;;;;;;;5014615;28;20445;-54
2022/02/14 08:37:57;;;;;;;36.85;23.23;;;;;;;;;;5014890;28;20026;-53
2022/02/14 08:40:24;;;;;;;30.98;20.63;;;;;;;;;;5014744;28;20105;-53
2022/02/14 08:42:50;;;;;;;35.00;22.45;;;;;;;;;;5018340;28;20401;-54
2022/02/14 08:45:18;;;;;;;33.05;20.85;;;;;;;;;;5023834;28;20543;-52
2022/02/14 08:47:44;;;;;;;44.90;25.42;;;;;;;;;;5024987;28;20140;-53
2022/02/14 08:50:13;;;;;;;49.28;27.15;;;;;;;;;;5023482;28;20018;-54
2022/02/14 08:52:39;;;;;;;32.53;21.35;;;;;;;;;;5023230;28;20036;-54
2022/02/14 08:55:08;;;;;;;35.90;23.25;;;;;;;;;;5024893;28;20487;-54
2022/02/14 08:57:34;;;;;;;33.95;21.73;;;;;;;;;;5014345;28;20025;-54
2022/02/14 09:00:00;;;;;;;28.75;19.27;;;;;;;;;;5023118;28;20080;-54
2022/02/14 09:02:27;;;;;;;56.72;32.25;;;;;;;;;;5024718;28;20088;-51
2022/02/14 09:04:53;;;;;;;32.75;21.30;;;;;;;;;;5023219;28;20080;-52
2022/02/14 09:07:19;;;;;;;31.80;20.67;;;;;;;;;;5023011;28;20033;-52
2022/02/14 09:09:47;;;;;;;43.30;26.63;;;;;;;;;;5024019;28;20049;-51
2022/02/14 09:12:13;;;;;;;31.30;21.00;;;;;;;;;;5012879;28;20109;-51
2022/02/14 09:14:40;;;;;;;32.75;21.52;;;;;;;;;;4986531;28;20033;-52
2022/02/14 09:17:06;;;;;;;28.67;19.00;;;;;;;;;;4984617;28;20022;-50
2022/02/14 09:19:32;;;;;;;26.27;18.92;;;;;;;;;;4984870;28;20046;-48
2022/02/14 09:21:58;;;;;;;30.15;17.83;;;;;;;;;;4984674;28;20136;-52
2022/02/14 09:24:26;;;;;;;31.00;18.33;;;;;;;;;;4984502;28;20073;-50
2022/02/14 09:26:53;;;;;;;53.30;33.17;;;;;;;;;;4984332;28;20069;-50
2022/02/14 09:29:20;;;;;;;43.40;26.38;;;;;;;;;;4985455;28;20031;-52
2022/02/14 09:31:47;;;;;;;50.15;30.15;;;;;;;;;;4985188;28;20637;-51
2022/02/14 09:34:13;;;;;;;58.40;33.80;;;;;;;;;;4984674;28;20030;-52
2022/02/14 09:36:39;;;;;;;36.75;22.77;;;;;;;;;;4987093;28;20050;-57
2022/02/14 09:39:06;;;;;;;70.78;39.10;;;;;;;;;;4993962;28;20025;-59
2022/02/14 09:41:32;;;;;;;36.35;22.70;;;;;;;;;;4994105;28;20089;-57
2022/02/14 09:43:59;;;;;;;31.95;19.33;;;;;;;;;;4994119;28;20037;-54
2022/02/14 09:46:27;;;;;;;25.70;17.52;;;;;;;;;;4993994;28;20088;-60
2022/02/14 09:48:53;;;;;;;24.73;16.65;;;;;;;;;;4993965;28;20050;-59
2022/02/14 09:51:19;;;;;;;25.63;16.55;;;;;;;;;;4994106;28;20033;-53
2022/02/14 09:53:45;;;;;;;37.72;20.33;;;;;;;;;;4993857;28;20026;-56
2022/02/14 09:56:12;;;;;;;29.58;18.08;;;;;;;;;;4993745;28;20108;-53
2022/02/14 09:58:38;;;;;;;53.22;31.60;;;;;;;;;;4993908;28;20028;-53
2022/02/14 10:01:04;;;;;;;33.63;22.52;;;;;;;;;;4993760;28;20537;-58
2022/02/14 10:03:31;;;;;;;42.50;24.80;;;;;;;;;;4993761;28;20102;-56
2022/02/14 10:05:58;;;;;;;30.77;19.30;;;;;;;;;;4993893;28;20045;-57
2022/02/14 10:08:28;;;;;;;40.20;25.23;;;;;;;;;;4993746;28;20077;-59
2022/02/14 10:10:55;;;;;;;57.88;35.88;;;;;;;;;;4993656;28;20034;-60
2022/02/14 10:13:30;;;;;;;44.47;24.40;;;;;;;;;;4993895;28;20481;-58
2022/02/14 10:15:56;;;;;;;26.55;18.00;;;;;;;;;;4993809;28;20026;-57
2022/02/14 10:18:33;;;;;;;23.38;16.75;;;;;;;;;;4993744;28;20046;-56
2022/02/14 10:21:14;;;;;;;40.00;24.23;;;;;;;;;;4993634;28;20029;-59
2022/02/14 10:23:57;;;;;;;30.52;17.77;;;;;;;;;;4993572;28;20030;-52
2022/02/14 10:26:23;;;;;;;38.38;23.15;;;;;;;;;;4993579;28;20042;-58
2022/02/14 10:28:49;;;;;;;69.80;40.63;;;;;;;;;;5022207;28;20026;-54
2022/02/14 10:31:18;;;;;;;26.98;17.20;;;;;;;;;;5021407;28;20030;-56
2022/02/14 10:33:57;;;;;;;29.30;20.13;;;;;;;;;;5019017;28;20033;-50
2022/02/14 10:36:32;;;;;;;24.88;15.27;;;;;;;;;;5012010;28;20061;-55
2022/02/14 10:39:06;;;;;;;29.15;16.80;;;;;;;;;;5011892;28;20056;-50
2022/02/14 10:41:32;;;;;;;35.25;22.50;;;;;;;;;;5012113;28;20518;-54
2022/02/14 10:47:19;;;;;;;39.90;25.55;;;;;;;;;;5015571;28;20052;-54
2022/02/14 10:49:50;;;;;;;52.90;29.95;;;;;;;;;;5020330;28;20037;-53
2022/02/14 10:52:16;;;;;;;;;;;;;;;;;;5024483;28;20114;-50
2022/02/14 10:54:44;;;;;;;102.15;59.55;;;;;;;;;;5005149;28;19916;-56
2022/02/14 10:57:25;;;;;;;46.72;28.48;;;;;;;;;;5020488;28;20068;-53
2022/02/14 10:59:58;;;;;;;75.28;46.38;;;;;;;;;;5020764;28;20474;-56
2022/02/14 11:02:24;;;;;;;37.95;24.75;;;;;;;;;;5022861;28;20449;-53
2022/02/14 11:04:50;;;;;;;52.28;29.75;;;;;;;;;;5024742;28;20108;-56
2022/02/14 11:07:17;;;;;;;34.70;23.67;;;;;;;;;;5023569;28;20052;-56
2022/02/14 11:09:54;;;;;;;52.85;30.77;;;;;;;;;;5023712;28;20034;-55
2022/02/14 11:12:23;;;;;;;48.17;28.33;;;;;;;;;;5022623;28;20382;-55
2022/02/14 11:14:57;;;;;;;27.65;17.70;;;;;;;;;;5023746;28;20143;-56
2022/02/14 11:17:28;;;;;;;37.42;20.42;;;;;;;;;;5024212;28;20017;-55
2022/02/14 11:19:55;;;;;;;49.28;30.42;;;;;;;;;;5020140;28;20032;-57
2022/02/14 11:22:24;;;;;;;37.08;20.95;;;;;;;;;;5024631;28;20044;-56
2022/02/14 11:24:55;;;;;;;23.90;15.00;;;;;;;;;;5023454;28;20390;-57
2022/02/14 11:27:23;;;;;;;32.60;20.58;;;;;;;;;;5024346;28;20558;-57
2022/02/14 11:29:55;;;;;;;53.20;30.73;;;;;;;;;;4971127;28;20831;-55
2022/02/14 11:32:23;;;;;;;30.60;21.00;;;;;;;;;;4984753;28;20075;-57
2022/02/14 11:34:56;;;;;;;28.48;16.73;;;;;;;;;;4927205;28;1666254;-58
2022/02/14 11:37:24;;;;;;;38.58;20.05;;;;;;;;;;4985730;28;20065;-56
2022/02/14 11:39:50;;;;;;;52.47;30.42;;;;;;;;;;4985865;28;20029;-54
2022/02/14 11:42:16;;;;;;;55.05;30.83;;;;;;;;;;4985785;28;20029;-55
2022/02/14 11:44:44;;;;;;;44.95;26.45;;;;;;;;;;4985847;28;20486;-55
2022/02/14 11:47:11;;;;;;;75.53;44.80;;;;;;;;;;4985714;28;20359;-55
2022/02/14 11:49:39;;;;;;;47.50;23.90;;;;;;;;;;4988310;28;20021;-55
2022/02/14 11:52:06;;;;;;;39.83;21.92;;;;;;;;;;4986332;28;20033;-55
2022/02/14 11:54:37;;;;;;;36.78;22.60;;;;;;;;;;4986663;28;20368;-53
2022/02/14 11:57:22;;;;;;;53.35;29.17;;;;;;;;;;4985490;28;20042;-54
2022/02/14 11:59:49;;;;;;;55.33;31.48;;;;;;;;;;4985155;28;20029;-54
2022/02/14 12:02:16;;;;;;;59.17;33.95;;;;;;;;;;4986628;28;20038;-56
2022/02/14 12:04:44;;;;;;;53.63;30.17;;;;;;;;;;4985155;28;20541;-51
2022/02/14 12:07:28;;;;;;;61.85;35.60;;;;;;;;;;4986327;28;21032;-56
2022/02/14 12:10:00;;;;;;;51.33;27.88;;;;;;;;;;4986587;28;20022;-56
2022/02/14 12:12:45;;;;;;;65.45;33.78;;;;;;;;;;4984870;28;20026;-56
2022/02/14 12:20:51;;;;;;;65.25;33.30;;;;;;;;;;4984720;28;20454;-58
2022/02/14 12:23:29;;;;;;;65.72;29.00;;;;;;;;;;4985598;28;20140;-56
2022/02/14 12:25:56;;;;;;;68.95;35.22;;;;;;;;;;4984096;28;20117;-55
2022/02/14 12:28:22;;;;;;;52.78;25.23;;;;;;;;;;4984635;28;20018;-54
2022/02/14 12:30:53;;;;;;;30.17;17.75;;;;;;;;;;4984491;28;20025;-54
2022/02/14 12:33:19;;;;;;;47.15;21.00;;;;;;;;;;4997764;28;20045;-56
2022/02/14 12:35:50;;;;;;;27.52;14.73;;;;;;;;;;5014730;28;20053;-56
2022/02/14 12:38:17;;;;;;;28.80;15.40;;;;;;;;;;5014887;28;20466;-54
2022/02/14 12:40:51;;;;;;;29.63;14.48;;;;;;;;;;5015056;28;20026;-57
2022/02/14 12:43:38;;;;;;;53.67;25.25;;;;;;;;;;5014783;28;20046;-56
2022/02/14 12:46:04;;;;;;;51.17;23.33;;;;;;;;;;5014779;28;20188;-58
2022/02/14 12:48:38;;;;;;;53.28;24.65;;;;;;;;;;5014652;28;20137;-56
2022/02/14 12:51:11;;;;;;;32.60;15.65;;;;;;;;;;5014870;28;20024;-55
2022/02/14 12:53:38;;;;;;;39.58;19.10;;;;;;;;;;5006049;28;20109;-54
2022/02/14 12:56:20;;;;;;;26.10;16.00;;;;;;;;;;4986348;28;20049;-54
2022/02/14 12:58:46;;;;;;;26.38;13.82;;;;;;;;;;4986292;28;20414;-56
2022/02/14 13:01:13;;;;;;;41.85;22.00;;;;;;;;;;4986503;28;20544;-54
2022/02/14 13:03:39;;;;;;;41.85;21.52;;;;;;;;;;4986107;28;20027;-54
2022/02/14 13:06:05;;;;;;;26.25;13.20;;;;;;;;;;4986383;28;20069;-54
2022/02/14 13:08:32;;;;;;;23.58;11.10;;;;;;;;;;4986669;28;20029;-55
2022/02/14 13:11:01;;;;;;;24.63;14.32;;;;;;;;;;4985755;28;20036;-53
2022/02/14 13:13:38;;;;;;;24.42;12.45;;;;;;;;;;4985729;28;20761;-55
2022/02/14 13:16:09;;;;;;;17.38;9.27;;;;;;;;;;4986604;28;20033;-56
2022/02/14 13:18:38;;;;;;;23.13;12.57;;;;;;;;;;5001082;28;20025;-56
2022/02/14 13:21:04;;;;;;;18.02;9.90;;;;;;;;;;5014207;28;20489;-61
2022/02/14 13:23:33;;;;;;;27.48;14.77;;;;;;;;;;5014121;28;20050;-56
2022/02/14 13:26:02;;;;;;;33.40;16.23;;;;;;;;;;5013872;28;20037;-58
2022/02/14 13:28:28;;;;;;;40.85;20.52;;;;;;;;;;5014041;28;20034;-58
2022/02/14 13:30:54;;;;;;;30.58;15.20;;;;;;;;;;5014097;28;20018;-58
2022/02/14 13:33:22;;;;;;;34.67;18.25;;;;;;;;;;5013794;28;20026;-58
2022/02/14 13:35:48;;;;;;;40.03;19.60;;;;;;;;;;5013817;28;20445;-57
2022/02/14 13:38:14;;;;;;;28.50;12.18;;;;;;;;;;5014365;28;20104;-58
2022/02/14 13:40:41;;;;;;;33.83;14.85;;;;;;;;;;5013674;28;20026;-60
2022/02/14 13:43:15;;;;;;;34.45;17.13;;;;;;;;;;5013847;28;20481;-58
2022/02/14 13:45:49;;;;;;;29.33;14.93;;;;;;;;;;5013652;28;20030;-55
2022/02/14 13:48:22;;;;;;;29.60;15.57;;;;;;;;;;5013883;28;20026;-56
2022/02/14 13:50:51;;;;;;;15.52;8.20;;;;;;;;;;5013729;28;20022;-58
2022/02/14 13:53:26;;;;;;;25.15;12.40;;;;;;;;;;5013464;28;20500;-57
2022/02/14 13:56:12;;;;;;;26.45;13.68;;;;;;;;;;5013737;28;20030;-56
2022/02/14 13:58:40;;;;;;;22.25;12.13;;;;;;;;;;5013851;28;20470;-59
2022/02/14 14:01:22;;;;;;;32.38;12.80;;;;;;;;;;5013417;28;20033;-59
2022/02/14 14:03:52;;;;;;;31.92;14.38;;;;;;;;;;5016293;28;20028;-59
2022/02/14 14:06:32;;;;;;;27.73;13.13;;;;;;;;;;5022618;28;20048;-58
2022/02/14 14:09:01;;;;;;;24.67;13.88;;;;;;;;;;5021904;28;20064;-56
2022/02/14 14:11:28;;;;;;;26.25;13.55;;;;;;;;;;5021805;28;20494;-56
2022/02/14 14:13:55;;;;;;;25.95;12.75;;;;;;;;;;5021982;28;20044;-58
2022/02/14 14:16:21;;;;;;;26.58;15.55;;;;;;;;;;5021903;28;20014;-57
2022/02/14 14:18:47;;;;;;;38.78;19.02;;;;;;;;;;5023091;28;20057;-58
2022/02/14 14:21:14;;;;;;;25.00;14.40;;;;;;;;;;5022608;28;20097;-54
2022/02/14 14:23:43;;;;;;;35.80;16.58;;;;;;;;;;5005001;28;20022;-57
2022/02/14 14:26:09;;;;;;;47.00;24.35;;;;;;;;;;5018565;28;20153;-59
2022/02/14 14:28:36;;;;;;;35.10;19.58;;;;;;;;;;5013321;28;20109;-53
2022/02/14 14:31:05;;;;;;;46.47;25.48;;;;;;;;;;5013425;28;20022;-54